createdAt,value
2022-09-20T00:01:42.064Z,23.30
2022-09-20T00:04:13.540Z,23.20
2022-09-20T00:06:42.638Z,23.20
2022-09-20T00:09:12.618Z,23.10
2022-09-20T00:11:41.761Z,23.20
2022-09-20T00:14:10.737Z,23.20
2022-09-20T00:16:42.318Z,23.20
2022-09-20T00:19:19.238Z,23.20
2022-09-20T00:21:48.572Z,23.10
2022-09-20T00:24:17.531Z,23.10
2022-09-20T00:26:46.533Z,23.00
2022-09-20T00:29:15.542Z,22.90
2022-09-20T00:31:45.248Z,22.90
2022-09-20T00:34:33.577Z,22.90
2022-09-20T00:37:02.676Z,22.80
2022-09-20T00:39:31.690Z,22.80
2022-09-20T00:42:01.056Z,22.70
2022-09-20T00:44:52.479Z,22.80
2022-09-20T00:47:27.866Z,22.70
2022-09-20T00:50:07.114Z,22.60
2022-09-20T00:52:37.820Z,22.60
2022-09-20T00:55:10.613Z,22.60
2022-09-20T00:57:40.228Z,22.60
2022-09-20T01:00:11.842Z,22.60
2022-09-20T01:02:44.357Z,22.60
2022-09-20T01:05:17.336Z,22.60
2022-09-20T01:07:48.995Z,22.60
2022-09-20T01:10:18.460Z,22.60
2022-09-20T01:12:48.818Z,22.60
2022-09-20T01:15:18.383Z,22.60
2022-09-20T01:17:50.152Z,22.60
2022-09-20T01:20:25.846Z,22.70
2022-09-20T01:23:14.344Z,22.80
2022-09-20T01:26:29.124Z,22.70
2022-09-20T01:29:07.894Z,22.80
2022-09-20T01:31:42.063Z,22.70
2022-09-20T01:34:15.041Z,22.70
2022-09-20T01:36:51.292Z,22.70
2022-09-20T01:39:32.011Z,22.60
2022-09-20T01:42:04.061Z,22.60
2022-09-20T01:44:40.534Z,22.60
2022-09-20T01:47:20.184Z,22.60
2022-09-20T01:49:58.413Z,22.50
2022-09-20T01:52:50.538Z,22.40
2022-09-20T01:55:51.397Z,22.20
2022-09-20T01:59:19.823Z,22.20
2022-09-20T02:02:10.504Z,22.20
2022-09-20T02:05:12.088Z,22.20
2022-09-20T02:08:05.360Z,22.20
2022-09-20T02:10:48.895Z,22.20
2022-09-20T02:13:30.218Z,22.30
2022-09-20T02:16:24.810Z,22.40
2022-09-20T02:19:18.650Z,22.40
2022-09-20T02:21:54.907Z,22.40
2022-09-20T02:24:31.511Z,22.40
2022-09-20T02:27:13.534Z,22.40
2022-09-20T02:29:48.413Z,22.40
2022-09-20T02:32:30.718Z,22.20
2022-09-20T02:35:17.794Z,22.20
2022-09-20T02:37:59.316Z,22.40
2022-09-20T02:40:57.153Z,22.40
2022-09-20T02:43:32.759Z,22.40
2022-09-20T02:46:08.155Z,22.50
2022-09-20T02:48:45.134Z,22.50
2022-09-20T02:51:23.357Z,22.50
2022-09-20T02:54:04.852Z,22.50
2022-09-20T02:56:44.414Z,22.60
2022-09-20T02:59:24.650Z,22.60
2022-09-20T03:02:12.411Z,22.60
2022-09-20T03:04:56.691Z,22.60
2022-09-20T03:07:35.986Z,22.70
2022-09-20T03:10:16.613Z,22.80
2022-09-20T03:12:59.477Z,22.70
2022-09-20T03:15:39.146Z,22.40
2022-09-20T03:18:12.811Z,22.40
2022-09-20T03:20:53.539Z,22.60
2022-09-20T03:23:38.731Z,22.80
2022-09-20T03:26:19.666Z,22.90
2022-09-20T03:28:58.661Z,22.80
2022-09-20T03:31:50.931Z,22.90
2022-09-20T03:34:36.433Z,22.80
2022-09-20T03:37:23.865Z,22.70
2022-09-20T03:40:27.686Z,22.60
2022-09-20T03:43:03.410Z,22.60
2022-09-20T03:45:47.970Z,22.60
2022-09-20T03:48:29.867Z,22.70
2022-09-20T03:51:18.165Z,22.70
2022-09-20T03:54:10.406Z,22.70
2022-09-20T03:57:17.909Z,22.60
2022-09-20T04:00:06.972Z,22.60
2022-09-20T04:03:01.650Z,22.50
2022-09-20T04:05:41.892Z,22.50
2022-09-20T04:08:25.845Z,22.60
2022-09-20T04:11:03.386Z,22.60
2022-09-20T04:13:38.362Z,22.50
2022-09-20T04:16:23.754Z,22.30
2022-09-20T04:18:58.744Z,22.30
2022-09-20T04:21:33.944Z,22.40
2022-09-20T04:24:07.320Z,22.40
2022-09-20T04:26:42.302Z,22.40
2022-09-20T04:29:34.591Z,22.30
2022-09-20T04:32:16.048Z,22.10
2022-09-20T04:35:07.699Z,22.30
2022-09-20T04:37:40.025Z,22.30
2022-09-20T04:40:21.454Z,22.30
2022-09-20T04:43:32.129Z,22.40
2022-09-20T04:46:40.445Z,22.40
2022-09-20T04:49:41.992Z,22.30
2022-09-20T04:52:48.305Z,22.20
2022-09-20T04:55:46.652Z,22.20
2022-09-20T04:58:45.162Z,22.20
2022-09-20T05:01:46.962Z,22.20
2022-09-20T05:04:53.849Z,22.30
2022-09-20T05:07:51.065Z,22.40
2022-09-20T05:10:55.797Z,22.30
2022-09-20T05:13:34.683Z,22.30
2022-09-20T05:16:07.578Z,22.40
2022-09-20T05:19:08.752Z,22.30
2022-09-20T05:21:58.504Z,22.30
2022-09-20T05:24:52.925Z,22.30
2022-09-20T05:27:38.042Z,22.30
2022-09-20T05:30:13.713Z,22.20
2022-09-20T05:32:47.705Z,22.20
2022-09-20T05:35:23.564Z,22.20
2022-09-20T05:38:01.974Z,22.20
2022-09-20T05:40:36.859Z,22.20
2022-09-20T05:43:13.213Z,22.20
2022-09-20T05:46:11.606Z,22.30
2022-09-20T05:48:53.690Z,22.30
2022-09-20T05:51:49.104Z,22.30
2022-09-20T05:54:58.935Z,22.20
2022-09-20T05:57:41.602Z,22.00
2022-09-20T06:00:16.929Z,22.10
2022-09-20T06:02:55.363Z,22.10
2022-09-20T06:05:36.433Z,22.00
2022-09-20T06:08:31.674Z,22.20
2022-09-20T06:11:37.962Z,22.30
2022-09-20T06:14:22.224Z,22.30
2022-09-20T06:16:59.366Z,22.30
2022-09-20T06:19:38.295Z,22.20
2022-09-20T06:22:15.554Z,22.30
2022-09-20T06:24:50.646Z,22.30
2022-09-20T06:27:25.237Z,22.30
2022-09-20T06:30:00.975Z,22.40
2022-09-20T06:32:32.158Z,22.50
2022-09-20T06:35:04.276Z,22.50
2022-09-20T06:38:03.575Z,22.60
2022-09-20T06:40:58.734Z,22.60
2022-09-20T06:43:31.702Z,22.50
2022-09-20T06:46:00.776Z,22.50
2022-09-20T06:48:32.195Z,22.50
2022-09-20T06:51:02.268Z,22.30
2022-09-20T06:53:33.975Z,22.20
2022-09-20T06:56:05.578Z,22.40
2022-09-20T06:58:34.534Z,22.50
2022-09-20T07:01:03.425Z,22.60
2022-09-20T07:03:34.176Z,22.50
2022-09-20T07:06:04.670Z,22.40
2022-09-20T07:08:34.096Z,22.60
2022-09-20T07:11:06.139Z,22.60
2022-09-20T07:13:35.303Z,22.50
2022-09-20T07:16:05.689Z,22.60
2022-09-20T07:18:36.768Z,22.80
2022-09-20T07:21:06.560Z,23.00
2022-09-20T07:23:35.700Z,23.10
2022-09-20T07:26:04.702Z,22.80
2022-09-20T07:28:35.192Z,22.90
2022-09-20T07:31:04.419Z,23.00
2022-09-20T07:33:33.416Z,23.00
2022-09-20T07:36:04.317Z,23.20
2022-09-20T07:38:33.482Z,23.20
2022-09-20T07:41:04.196Z,23.30
2022-09-20T07:43:33.742Z,23.30
2022-09-20T07:46:02.979Z,23.30
2022-09-20T07:48:34.205Z,23.30
2022-09-20T07:51:08.910Z,23.20
2022-09-20T07:53:38.459Z,22.70
2022-09-20T07:56:09.076Z,22.90
2022-09-20T07:58:38.287Z,23.20
2022-09-20T08:01:09.127Z,23.30
2022-09-20T08:03:38.764Z,23.20
2022-09-20T08:06:11.193Z,23.10
2022-09-20T08:08:41.482Z,23.10
2022-09-20T08:11:12.973Z,23.40
2022-09-20T08:16:33.907Z,23.50
2022-09-20T08:19:04.240Z,23.70
2022-09-20T08:21:38.595Z,23.70
2022-09-20T08:24:07.949Z,23.70
2022-09-20T08:26:37.298Z,23.70
2022-09-20T08:29:07.484Z,23.80
2022-09-20T08:31:40.404Z,23.90
2022-09-20T08:34:11.170Z,24.20
2022-09-20T08:36:45.653Z,24.40
2022-09-20T08:42:16.387Z,24.00
2022-09-20T08:45:00.500Z,24.20
2022-09-20T08:47:32.763Z,24.20
2022-09-20T08:50:16.824Z,24.20
2022-09-20T08:52:49.590Z,24.30
2022-09-20T08:55:21.083Z,24.40
2022-09-20T08:57:52.222Z,24.40
2022-09-20T09:00:23.640Z,24.50
2022-09-20T09:02:55.501Z,24.50
2022-09-20T09:05:35.818Z,24.10
2022-09-20T09:08:16.658Z,24.40
2022-09-20T09:10:54.371Z,24.70
2022-09-20T09:13:28.270Z,24.60
2022-09-20T09:16:01.960Z,24.50
2022-09-20T09:18:37.273Z,24.60
2022-09-20T09:21:10.689Z,24.80
2022-09-20T09:23:44.815Z,25.00
2022-09-20T09:26:21.686Z,24.90
2022-09-20T09:29:17.904Z,25.00
2022-09-20T09:31:48.645Z,25.30
2022-09-20T09:34:29.181Z,25.10
2022-09-20T09:36:59.672Z,25.20
2022-09-20T09:39:33.146Z,25.30
2022-09-20T09:42:20.435Z,25.30
2022-09-20T09:44:50.663Z,25.40
2022-09-20T09:47:28.986Z,25.70
2022-09-20T09:50:02.562Z,25.50
2022-09-20T09:52:35.707Z,25.50
2022-09-20T09:55:07.823Z,25.60
2022-09-20T09:57:54.254Z,25.60
2022-09-20T10:00:25.320Z,25.60
2022-09-20T10:03:23.853Z,25.70
2022-09-20T10:06:08.541Z,25.30
2022-09-20T10:08:47.520Z,25.50
2022-09-20T10:11:32.252Z,25.90
2022-09-20T10:14:14.611Z,25.70
2022-09-20T10:17:02.235Z,25.60
2022-09-20T10:19:50.380Z,25.60
2022-09-20T10:22:34.738Z,25.50
2022-09-20T10:25:17.052Z,25.80
2022-09-20T10:28:03.168Z,25.80
2022-09-20T10:30:38.773Z,26.00
2022-09-20T10:33:19.991Z,25.70
2022-09-20T10:36:03.221Z,25.90
2022-09-20T10:38:37.304Z,26.00
2022-09-20T10:41:45.387Z,25.80
2022-09-20T10:44:34.137Z,25.90
2022-09-20T10:47:10.456Z,25.90
2022-09-20T10:49:48.476Z,26.00
2022-09-20T10:52:42.492Z,26.30
2022-09-20T10:55:35.028Z,26.40
2022-09-20T10:58:37.106Z,26.20
2022-09-20T11:01:15.538Z,26.50
2022-09-20T11:03:58.699Z,26.30
2022-09-20T11:06:39.497Z,26.20
2022-09-20T11:09:14.182Z,26.40
2022-09-20T11:11:46.804Z,26.70
2022-09-20T11:14:21.462Z,26.70
2022-09-20T11:17:00.505Z,26.60
2022-09-20T11:19:34.979Z,26.30
2022-09-20T11:22:10.166Z,26.40
2022-09-20T11:24:43.611Z,26.70
2022-09-20T11:27:20.031Z,26.50
2022-09-20T11:29:54.487Z,26.30
2022-09-20T11:32:31.284Z,26.20
2022-09-20T11:35:08.373Z,26.50
2022-09-20T11:37:41.048Z,26.50
2022-09-20T11:40:19.361Z,26.60
2022-09-20T11:42:48.790Z,26.50
2022-09-20T11:45:17.954Z,26.50
2022-09-20T11:47:55.712Z,26.30
2022-09-20T11:51:00.997Z,26.60
2022-09-20T11:53:43.974Z,26.20
2022-09-20T11:56:20.242Z,26.40
2022-09-20T11:58:51.520Z,26.40
2022-09-20T12:01:30.694Z,26.20
2022-09-20T12:04:30.628Z,26.40
2022-09-20T12:07:07.495Z,26.50
2022-09-20T12:09:40.870Z,26.70
2022-09-20T12:12:21.565Z,26.50
2022-09-20T12:14:56.443Z,26.40
2022-09-20T12:18:08.214Z,26.50
2022-09-20T12:21:27.492Z,26.60
2022-09-20T12:24:20.980Z,26.70
2022-09-20T12:26:52.343Z,26.70
2022-09-20T12:29:57.511Z,26.40
2022-09-20T12:32:40.999Z,26.50
2022-09-20T12:35:58.450Z,26.50
2022-09-20T12:38:41.829Z,26.50
2022-09-20T12:41:28.149Z,26.10
2022-09-20T12:44:04.956Z,26.40
2022-09-20T12:46:43.975Z,26.40
2022-09-20T12:49:55.931Z,26.10
2022-09-20T12:52:49.818Z,26.10
2022-09-20T12:55:46.078Z,26.20
2022-09-20T12:58:38.209Z,26.50
2022-09-20T13:01:34.431Z,26.50
2022-09-20T13:04:41.295Z,26.10
2022-09-20T13:07:43.632Z,26.20
2022-09-20T13:10:39.281Z,26.20
2022-09-20T13:13:35.171Z,26.10
2022-09-20T13:16:06.693Z,26.00
2022-09-20T13:18:37.949Z,26.30
2022-09-20T13:21:09.403Z,26.30
2022-09-20T13:23:49.760Z,25.90
2022-09-20T13:26:26.132Z,25.80
2022-09-20T13:28:59.418Z,25.80
2022-09-20T13:31:31.185Z,25.50
2022-09-20T13:34:20.747Z,25.60
2022-09-20T13:36:56.044Z,25.50
2022-09-20T13:39:35.278Z,25.70
2022-09-20T13:42:11.828Z,25.70
2022-09-20T13:44:45.259Z,25.60
2022-09-20T13:47:25.598Z,25.80
2022-09-20T13:49:55.052Z,25.90
2022-09-20T13:52:29.924Z,26.00
2022-09-20T13:54:59.387Z,25.80
2022-09-20T13:57:30.694Z,25.90
2022-09-20T14:00:03.192Z,26.20
2022-09-20T14:02:41.380Z,26.10
2022-09-20T14:05:19.563Z,26.10
2022-09-20T14:07:50.229Z,26.20
2022-09-20T14:10:32.518Z,26.00
2022-09-20T14:13:03.656Z,25.90
2022-09-20T14:15:38.798Z,26.00
2022-09-20T14:18:10.911Z,26.10
2022-09-20T14:20:43.620Z,26.00
2022-09-20T14:23:22.920Z,26.00
2022-09-20T14:26:08.982Z,25.90
2022-09-20T14:28:38.343Z,25.90
2022-09-20T14:31:10.818Z,25.80
2022-09-20T14:33:42.370Z,25.90
2022-09-20T14:36:16.586Z,25.70
2022-09-20T14:38:48.608Z,25.70
2022-09-20T14:41:29.176Z,25.70
2022-09-20T14:44:00.417Z,25.80
2022-09-20T14:46:36.847Z,26.00
2022-09-20T14:49:32.542Z,26.30
2022-09-20T14:52:24.594Z,26.30
2022-09-20T14:55:02.482Z,26.10
2022-09-20T14:57:32.502Z,25.90
2022-09-20T15:00:08.337Z,25.80
2022-09-20T15:02:43.960Z,25.50
2022-09-20T15:05:20.964Z,26.00
2022-09-20T15:07:49.968Z,26.40
2022-09-20T15:10:19.601Z,26.40
2022-09-20T15:12:49.022Z,26.90
2022-09-20T15:15:20.248Z,27.20
2022-09-20T15:17:50.976Z,27.10
2022-09-20T15:20:24.251Z,26.90
2022-09-20T15:22:53.990Z,26.40
2022-09-20T15:25:23.713Z,26.10
2022-09-20T15:27:52.908Z,26.20
2022-09-20T15:30:22.567Z,26.70
2022-09-20T15:32:54.671Z,26.60
2022-09-20T15:35:24.040Z,26.40
2022-09-20T15:37:53.071Z,26.00
2022-09-20T15:40:22.225Z,26.00
2022-09-20T15:42:55.928Z,26.00
2022-09-20T15:45:26.811Z,26.10
2022-09-20T15:47:58.482Z,25.90
2022-09-20T15:50:28.571Z,25.60
2022-09-20T15:53:00.124Z,25.70
2022-09-20T15:55:29.811Z,25.60
2022-09-20T15:57:58.802Z,25.60
2022-09-20T16:00:27.882Z,25.50
2022-09-20T16:02:59.128Z,25.50
2022-09-20T16:05:28.327Z,25.30
2022-09-20T16:07:59.226Z,25.20
2022-09-20T16:10:28.461Z,25.00
2022-09-20T16:12:57.661Z,25.10
2022-09-20T16:15:26.920Z,24.90
2022-09-20T16:18:14.755Z,24.80
2022-09-20T16:20:43.876Z,24.70
2022-09-20T16:23:15.235Z,24.70
2022-09-20T16:25:46.230Z,24.70
2022-09-20T16:28:15.213Z,24.80
2022-09-20T16:30:44.568Z,24.80
2022-09-20T16:33:16.018Z,24.80
2022-09-20T16:35:45.244Z,24.90
2022-09-20T16:38:15.028Z,24.70
2022-09-20T16:40:44.329Z,24.70
2022-09-20T16:43:20.454Z,24.70
2022-09-20T16:45:49.619Z,24.60
2022-09-20T16:48:20.528Z,24.80
2022-09-20T16:50:56.061Z,24.60
2022-09-20T16:53:26.756Z,24.80
2022-09-20T16:55:56.982Z,24.90
2022-09-20T16:58:29.895Z,24.90
2022-09-20T17:01:05.493Z,24.70
2022-09-20T17:03:36.147Z,24.80
2022-09-20T17:06:06.191Z,24.80
2022-09-20T17:08:39.132Z,24.80
2022-09-20T17:11:10.431Z,24.80
2022-09-20T17:13:40.875Z,24.80
2022-09-20T17:16:12.303Z,24.90
2022-09-20T17:18:43.922Z,24.90
2022-09-20T17:21:15.210Z,24.80
2022-09-20T17:23:50.177Z,24.90
2022-09-20T17:26:23.388Z,24.70
2022-09-20T17:28:56.355Z,24.40
2022-09-20T17:31:34.194Z,24.40
2022-09-20T17:34:06.773Z,24.50
2022-09-20T17:36:39.376Z,24.60
2022-09-20T17:39:10.981Z,24.60
2022-09-20T17:41:40.621Z,24.40
2022-09-20T17:44:10.298Z,24.40
2022-09-20T17:46:41.065Z,24.40
2022-09-20T17:49:13.874Z,24.50
2022-09-20T17:51:44.448Z,24.40
2022-09-20T17:54:14.401Z,24.40
2022-09-20T17:56:44.677Z,24.30
2022-09-20T17:59:16.324Z,24.30
2022-09-20T18:01:47.128Z,24.40
2022-09-20T18:04:21.090Z,24.20
2022-09-20T18:06:51.880Z,24.20
2022-09-20T18:09:22.632Z,24.10
2022-09-20T18:11:53.790Z,24.10
2022-09-20T18:14:24.668Z,24.10
2022-09-20T18:16:55.251Z,24.20
2022-09-20T18:19:32.803Z,24.10
2022-09-20T18:22:02.794Z,24.10
2022-09-20T18:24:32.060Z,24.00
2022-09-20T18:27:01.825Z,24.00
2022-09-20T18:29:36.853Z,23.90
2022-09-20T18:32:08.910Z,23.90
2022-09-20T18:34:39.698Z,24.00
2022-09-20T18:37:13.787Z,23.90
2022-09-20T18:39:44.131Z,24.00
2022-09-20T18:42:13.183Z,24.10
2022-09-20T18:44:43.344Z,24.10
2022-09-20T18:47:12.295Z,24.00
2022-09-20T18:49:42.743Z,24.00
2022-09-20T18:52:13.303Z,23.90
2022-09-20T18:54:42.677Z,23.90
2022-09-20T18:57:12.365Z,23.80
2022-09-20T18:59:53.430Z,23.70
2022-09-20T19:02:50.612Z,23.80
2022-09-20T19:05:36.154Z,23.80
2022-09-20T19:08:18.501Z,23.90
2022-09-20T19:10:53.517Z,24.00
2022-09-20T19:13:32.779Z,23.80
2022-09-20T19:16:20.705Z,23.90
2022-09-20T19:19:20.496Z,23.90
2022-09-20T19:21:59.286Z,24.00
2022-09-20T19:24:47.758Z,23.90
2022-09-20T19:27:17.172Z,23.90
2022-09-20T19:29:46.891Z,23.90
2022-09-20T19:32:21.388Z,23.70
2022-09-20T19:34:53.560Z,23.80
2022-09-20T19:37:34.938Z,23.80
2022-09-20T19:40:22.927Z,23.70
2022-09-20T19:43:03.900Z,23.60
2022-09-20T19:45:41.031Z,23.70
2022-09-20T19:48:18.001Z,23.80
2022-09-20T19:50:49.246Z,23.80
2022-09-20T19:53:22.479Z,23.80
2022-09-20T19:55:54.892Z,23.90
2022-09-20T19:58:24.166Z,23.80
2022-09-20T20:00:53.653Z,23.70
2022-09-20T20:03:26.405Z,23.70
2022-09-20T20:06:04.550Z,23.80
2022-09-20T20:08:48.936Z,23.80
2022-09-20T20:11:26.257Z,23.70
2022-09-20T20:14:04.860Z,23.60
2022-09-20T20:16:39.745Z,23.30
2022-09-20T20:19:33.258Z,23.20
2022-09-20T20:22:09.882Z,23.20
2022-09-20T20:24:48.699Z,23.30
2022-09-20T20:27:17.911Z,23.20
2022-09-20T20:29:47.300Z,23.30
2022-09-20T20:32:16.766Z,23.20
2022-09-20T20:34:47.317Z,23.20
2022-09-20T20:37:18.463Z,23.20
2022-09-20T20:39:48.957Z,23.20
2022-09-20T20:42:18.141Z,23.00
2022-09-20T20:44:47.768Z,22.90
2022-09-20T20:47:17.067Z,23.00
2022-09-20T20:49:50.698Z,23.10
2022-09-20T20:52:21.779Z,23.10
2022-09-20T20:54:52.533Z,23.10
2022-09-20T20:57:21.777Z,23.10
2022-09-20T20:59:50.825Z,23.10
2022-09-20T21:02:19.985Z,23.00
2022-09-20T21:04:49.300Z,23.00
2022-09-20T21:07:18.416Z,22.90
2022-09-20T21:09:47.761Z,22.90
2022-09-20T21:12:19.125Z,22.90
2022-09-20T21:14:48.559Z,23.00
2022-09-20T21:17:17.551Z,22.90
2022-09-20T21:19:46.458Z,22.90
2022-09-20T21:22:15.237Z,22.80
2022-09-20T21:24:44.261Z,22.70
2022-09-20T21:27:13.334Z,22.90
2022-09-20T21:29:43.876Z,22.80
2022-09-20T21:32:14.535Z,22.90
2022-09-20T21:34:43.985Z,22.80
2022-09-20T21:37:13.329Z,22.80
2022-09-20T21:39:42.189Z,22.80
2022-09-20T21:42:11.206Z,22.70
2022-09-20T21:44:43.536Z,22.60
2022-09-20T21:47:20.880Z,22.60
2022-09-20T21:49:49.979Z,22.60
2022-09-20T21:52:18.972Z,22.60
2022-09-20T21:54:47.999Z,22.70
2022-09-20T21:57:17.049Z,22.70
2022-09-20T21:59:46.185Z,22.60
2022-09-20T22:02:17.250Z,22.50
2022-09-20T22:04:46.384Z,22.40
2022-09-20T22:07:16.254Z,22.50
2022-09-20T22:09:45.487Z,22.60
2022-09-20T22:12:14.370Z,22.50
2022-09-20T22:14:44.685Z,22.50
2022-09-20T22:17:13.648Z,22.40
2022-09-20T22:19:45.081Z,22.40
2022-09-20T22:22:14.064Z,22.40
2022-09-20T22:24:43.795Z,22.40
2022-09-20T22:27:13.042Z,22.30
2022-09-20T22:29:42.105Z,22.30
2022-09-20T22:32:11.847Z,22.40
2022-09-20T22:34:40.826Z,22.40
2022-09-20T22:37:11.114Z,22.40
2022-09-20T22:39:41.629Z,22.30
2022-09-20T22:42:10.651Z,22.20
2022-09-20T22:44:39.677Z,22.10
2022-09-20T22:47:08.914Z,22.00
2022-09-20T22:49:38.244Z,22.00
2022-09-20T22:52:08.077Z,22.10
2022-09-20T22:54:38.958Z,22.20
2022-09-20T22:57:08.258Z,22.10
2022-09-20T22:59:37.564Z,22.10
2022-09-20T23:02:06.589Z,22.10
2022-09-20T23:04:36.016Z,22.20
2022-09-20T23:07:05.299Z,22.20
2022-09-20T23:09:34.110Z,22.20
2022-09-20T23:12:05.285Z,22.20
2022-09-20T23:14:34.380Z,22.20
2022-09-20T23:17:03.296Z,22.20
2022-09-20T23:19:32.502Z,22.20
2022-09-20T23:22:01.383Z,22.30
2022-09-20T23:24:31.305Z,22.20
2022-09-20T23:27:00.421Z,22.10
2022-09-20T23:29:32.672Z,22.10
2022-09-20T23:32:01.945Z,22.00
2022-09-20T23:34:31.442Z,22.00
2022-09-20T23:37:00.740Z,21.90
2022-09-20T23:39:30.079Z,21.90
2022-09-20T23:41:59.633Z,21.80
2022-09-20T23:44:28.760Z,21.80
2022-09-20T23:46:59.122Z,21.80
2022-09-20T23:49:28.765Z,21.80
2022-09-20T23:51:58.118Z,21.80
2022-09-20T23:54:27.563Z,21.90
2022-09-20T23:56:56.626Z,21.90
2022-09-20T23:59:25.821Z,21.90
